»·PEaware :: N5832H KSNA-KSNA

N5832H :: KSNA-KSNA

FLIGHT INFORMATION

Flight Status: Arrived
Operator: Privately registered:
United States
More flights under this callsign
Pilot: Fernando A. (32251)
Aircraft: CESSNA 172 SKYHAWK
(C172)
More flights by this aircraft type
Origin: KSNA John Wayne-Orange Co
United States
Destination: KSNA John Wayne-Orange Co
United States
More flights between these airports :: More routes between these airports
Route: SLI
File this flight plan on PilotEdge
Remarks:
Altitude:
(Current/Filed)
3,000ft
Speed:
(Current/Filed)
110kts
Departed: 29-Nov-20 01:15 PM
Arrived: 29-Nov-20 01:39 PM
Distance/Time
Traveled:
0nm/0:23
Distance/Time
To Go:
Arrived

Flight Plot

Page will automatically refresh every two minutes.


Map Options




Map Legend


Flown Route
Filed Route
Departure Airport
Arrival Airport
Navaid (VOR, NDB)
Fix

Horizontal Profiles

Position Reports

Time Latitude Longitude Heading Altitude Ground
Speed
29-Nov-20 13:01 33.672442 -117.873408 239 55ft 0kts
29-Nov-20 13:02 33.672442 -117.873408 239 55ft 0kts
29-Nov-20 13:03 33.672442 -117.873408 239 55ft 0kts
29-Nov-20 13:03 33.672442 -117.873408 239 55ft 0kts
29-Nov-20 13:04 33.672442 -117.873408 239 55ft 0kts
29-Nov-20 13:05 33.672442 -117.873408 239 55ft 0kts
29-Nov-20 13:07 33.672442 -117.873408 239 55ft 0kts
29-Nov-20 13:07 33.672442 -117.873408 239 55ft 0kts
29-Nov-20 13:08 33.672442 -117.873408 239 55ft 0kts
29-Nov-20 13:09 33.672287 -117.873385 126 55ft 7kts
29-Nov-20 13:10 33.674576 -117.871048 28 54ft 19kts
29-Nov-20 13:11 33.679520 -117.868013 12 47ft 19kts
29-Nov-20 13:12 33.681223 -117.866476 115 43ft 0kts
29-Nov-20 13:13 33.680428 -117.865872 207 44ft 10kts
29-Nov-20 13:15 33.663033 -117.880527 233 592ft 84kts
29-Nov-20 13:15 33.650619 -117.900678 234 1167ft 96kts
29-Nov-20 13:16 33.634172 -117.928553 236 1664ft 107kts
29-Nov-20 13:17 33.624102 -117.958904 311 2209ft 105kts
29-Nov-20 13:18 33.651316 -117.956566 11 2900ft 102kts
29-Nov-20 13:19 33.682111 -117.948848 15 2977ft 116kts
29-Nov-20 13:20 33.712577 -117.939451 25 2973ft 109kts
29-Nov-20 13:21 33.740211 -117.925171 27 2971ft 107kts
29-Nov-20 13:22 33.767538 -117.910795 26 2978ft 107kts
29-Nov-20 13:23 33.795011 -117.896591 24 2975ft 108kts
29-Nov-20 13:24 33.822210 -117.882144 26 2997ft 107kts
29-Nov-20 13:25 33.850066 -117.868715 25 2988ft 107kts
29-Nov-20 13:26 33.877853 -117.855447 24 2989ft 107kts
29-Nov-20 13:27 33.905702 -117.842096 24 2989ft 107kts
29-Nov-20 13:28 33.910936 -117.810748 91 2986ft 104kts
29-Nov-20 13:29 33.910191 -117.776029 90 2994ft 104kts
29-Nov-20 13:30 33.897166 -117.751701 183 2979ft 113kts
29-Nov-20 13:31 33.866224 -117.756751 182 3009ft 113kts
29-Nov-20 13:32 33.836379 -117.769960 199 2991ft 117kts
29-Nov-20 13:33 33.806127 -117.786069 206 2785ft 120kts
29-Nov-20 13:34 33.776580 -117.805334 203 2167ft 118kts
29-Nov-20 13:35 33.747753 -117.823852 205 1538ft 112kts
29-Nov-20 13:36 33.719747 -117.841239 204 902ft 111kts
29-Nov-20 13:37 33.694814 -117.856828 205 430ft 92kts
29-Nov-20 13:38 33.677948 -117.867535 241 53ft 10kts
29-Nov-20 13:39 33.678109 -117.868390 294 51ft 0kts
29-Nov-20 13:40 33.675435 -117.870502 207 54ft 20kts
29-Nov-20 13:41 33.675232 -117.871822 35 52ft 0kts
29-Nov-20 13:42 33.675232 -117.871822 35 52ft 0kts
29-Nov-20 13:43 33.675232 -117.871822 35 52ft 0kts
29-Nov-20 13:44 33.675232 -117.871822 35 52ft 0kts
29-Nov-20 13:45 33.675232 -117.871822 35 52ft 0kts
29-Nov-20 13:46 33.675232 -117.871822 35 52ft 0kts
29-Nov-20 13:47 33.675232 -117.871822 35 52ft 0kts
29-Nov-20 13:48 33.675232 -117.871822 35 52ft 0kts
29-Nov-20 13:49 33.675232 -117.871822 35 52ft 0kts
29-Nov-20 13:50 33.675232 -117.871822 35 52ft 0kts
29-Nov-20 13:51 33.675232 -117.871822 35 52ft 0kts

Navigation Log

Ident Type
Flight plan parsing failed, navigation log unavailable